Ava, New York
Current Conditions -  °F | °C
As of 4:53 PM on Monday 24 Nov 2014 (Local Time) from KRME Reporting Station
Broken Clouds Broken Clouds  
Wind Chill: 66°   Ceiling: 11000
Heat Index: 66°   Visibility: 10mi
Dew Point: 50°   Wind: 16mph
Humidity: 56%   Direction: 180°S
Pressure: 29.41"   Gusts: 23mph
Location:  43.42°N, 75.48°W
Report Text: KRME 242153Z 18014G20KT 10SM FEW075 FEW090 BKN110 19/10 A2941 RMK AO2 PRESRR SLP958 T01890100
Loading
Personal Weather Stations






























Interactive Weather Map New forecast layout! Learn more

10-Day Weather Forecast

Advertisements
Track Severe Weather on mobile